Time;durP1;ratioP1;P1;durP2;ratioP2;P2;SDS_P1;SDS_P2;PMS_P1;PMS_P2;Temp;Humidity;BMP_temperature;BMP_pressure;BME280_temperature;BME280_humidity;BME280_pressure;Samples;Min_cycle;Max_cycle;Signal;HPM_P1;HPM_P2
2023/03/11 00:01:44;;;;;;;6.23;5.67;;;;;;;12.43;100.00;97588.28;5112810;28;20222;-61
2023/03/11 00:04:12;;;;;;;10.97;6.33;;;;;;;12.44;100.00;97579.53;5112958;28;20201;-61
2023/03/11 00:06:38;;;;;;;6.67;5.93;;;;;;;12.36;100.00;97569.66;5113262;28;20625;-61
2023/03/11 00:09:05;;;;;;;9.37;6.33;;;;;;;12.46;100.00;97579.44;5113214;28;20209;-61
2023/03/11 00:11:32;;;;;;;8.33;6.23;;;;;;;12.48;100.00;97554.16;5113572;28;20193;-61
2023/03/11 00:13:59;;;;;;;6.93;6.17;;;;;;;12.46;100.00;97559.47;5113098;28;20221;-61
2023/03/11 00:16:27;;;;;;;6.53;6.00;;;;;;;12.39;100.00;97557.38;5112690;28;20215;-62
2023/03/11 00:18:54;;;;;;;10.97;6.03;;;;;;;12.55;100.00;97561.44;5113118;28;20654;-61
2023/03/11 00:21:21;;;;;;;7.77;5.77;;;;;;;12.54;100.00;97538.94;5112726;28;20326;-63
2023/03/11 00:23:48;;;;;;;7.40;6.20;;;;;;;12.57;100.00;97519.69;5112830;28;20582;-61
2023/03/11 00:26:15;;;;;;;7.50;6.63;;;;;;;12.64;100.00;97519.16;5112956;28;20586;-61
2023/03/11 00:28:42;;;;;;;6.57;6.00;;;;;;;12.68;100.00;97530.19;5112474;28;20201;-63
2023/03/11 00:31:11;;;;;;;6.60;6.00;;;;;;;12.75;100.00;97517.63;5112700;28;20209;-63
2023/03/11 00:33:39;;;;;;;6.37;5.80;;;;;;;12.72;100.00;97505.63;5112646;28;20289;-64
2023/03/11 00:36:07;;;;;;;6.47;5.87;;;;;;;12.67;100.00;97492.94;5112955;28;20279;-62
2023/03/11 00:38:34;;;;;;;7.93;6.40;;;;;;;12.73;100.00;97494.28;5112686;28;20190;-63
2023/03/11 00:41:01;;;;;;;6.73;5.80;;;;;;;12.75;100.00;97489.00;5112707;28;20194;-64
2023/03/11 00:43:28;;;;;;;7.93;6.67;;;;;;;12.75;100.00;97489.00;5112088;28;20275;-64
2023/03/11 00:45:55;;;;;;;8.13;6.73;;;;;;;12.67;100.00;97473.88;5112707;28;20688;-64
2023/03/11 00:48:22;;;;;;;8.97;6.77;;;;;;;12.70;100.00;97476.28;5112311;28;20244;-64
2023/03/11 00:50:50;;;;;;;8.67;6.77;;;;;;;12.78;100.00;97468.75;5112345;28;20575;-62
2023/03/11 00:53:17;;;;;;;8.77;6.97;;;;;;;12.72;100.00;97461.41;5112225;28;20252;-62
2023/03/11 00:55:44;;;;;;;7.87;7.07;;;;;;;12.62;100.00;97452.56;5112108;28;20190;-62
2023/03/11 00:58:11;;;;;;;8.73;6.80;;;;;;;12.66;100.00;97467.84;5111987;28;20198;-62
2023/03/11 01:00:38;;;;;;;7.50;6.90;;;;;;;12.69;100.00;97464.19;5112358;28;20243;-62
2023/03/11 01:03:06;;;;;;;12.03;7.60;;;;;;;12.56;100.00;97452.97;5112113;28;20681;-62
2023/03/11 01:05:34;;;;;;;7.50;6.67;;;;;;;12.57;100.00;97462.44;5111841;28;20199;-63
2023/03/11 01:08:03;;;;;;;9.00;7.27;;;;;;;12.54;100.00;97460.06;5112095;28;20195;-63
2023/03/11 01:10:31;;;;;;;10.47;7.13;;;;;;;12.48;100.00;97439.69;5111250;28;20688;-63
2023/03/11 01:12:59;;;;;;;9.13;7.30;;;;;;;12.51;100.00;97442.91;5111860;28;20195;-64
2023/03/11 01:15:28;;;;;;;7.93;7.13;;;;;;;12.46;100.00;97452.78;5111918;28;20199;-64
2023/03/11 01:17:54;;;;;;;7.17;6.57;;;;;;;12.44;100.00;97438.22;5111857;28;20201;-64
2023/03/11 01:20:22;;;;;;;8.80;7.90;;;;;;;12.40;100.00;97426.38;5111949;28;20205;-64
2023/03/11 01:22:49;;;;;;;10.83;8.33;;;;;;;12.33;100.00;97432.00;5111643;28;20581;-64
2023/03/11 01:25:19;;;;;;;10.93;8.30;;;;;;;12.23;100.00;97415.34;5111691;28;20205;-63
2023/03/11 01:27:47;;;;;;;16.33;8.90;;;;;;;12.29;100.00;97404.56;5111802;28;20301;-63
2023/03/11 01:30:16;;;;;;;11.73;8.63;;;;;;;12.24;100.00;97418.78;5112126;28;20626;-64
2023/03/11 01:32:43;;;;;;;12.83;8.77;;;;;;;12.24;100.00;97421.41;5111459;28;20195;-64
2023/03/11 01:35:11;;;;;;;8.73;7.90;;;;;;;12.26;100.00;97409.94;5111727;28;20681;-62
2023/03/11 01:37:38;;;;;;;13.10;9.23;;;;;;;12.14;100.00;97403.00;5111454;28;20258;-62
2023/03/11 01:40:06;;;;;;;11.17;9.07;;;;;;;12.07;100.00;97412.16;5111523;28;20271;-64
2023/03/11 01:42:35;;;;;;;12.13;9.23;;;;;;;12.05;100.00;97423.59;5111333;28;20222;-62
2023/03/11 01:45:01;;;;;;;10.80;8.50;;;;;;;12.08;100.00;97421.59;5111344;28;20201;-62
2023/03/11 01:47:39;;;;;;;13.73;9.23;;;;;;;12.09;100.00;97423.25;5111104;28;20622;-62
2023/03/11 01:50:12;;;;;;;14.07;9.87;;;;;;;12.14;100.00;97407.34;5111151;28;20599;-62
2023/03/11 01:52:41;;;;;;;9.97;8.97;;;;;;;12.12;100.00;97399.66;5111399;28;20584;-62
2023/03/11 01:55:09;;;;;;;9.93;8.93;;;;;;;12.06;100.00;97413.09;5110746;28;20201;-62
2023/03/11 01:57:39;;;;;;;10.13;8.73;;;;;;;11.99;100.00;97411.84;5111054;28;20217;-62
2023/03/11 02:00:09;;;;;;;9.67;7.77;;;;;;;11.99;100.00;97406.63;5111084;28;20191;-62
2023/03/11 02:02:40;;;;;;;10.00;8.17;;;;;;;11.99;100.00;97385.84;5110466;28;20222;-62
2023/03/11 02:05:08;;;;;;;9.70;7.90;;;;;;;12.20;100.00;97381.75;5111210;28;20217;-62
2023/03/11 02:07:35;;;;;;;9.80;8.63;;;;;;;12.24;100.00;97367.63;5110734;28;20205;-62
2023/03/11 02:10:02;;;;;;;9.77;7.87;;;;;;;12.18;100.00;97372.41;5110894;28;20282;-65
2023/03/11 02:12:34;;;;;;;9.37;7.50;;;;;;;12.22;100.00;97359.06;5110763;28;20189;-65
2023/03/11 02:15:02;;;;;;;8.97;7.53;;;;;;;12.31;100.00;97368.84;5110526;28;20213;-62
2023/03/11 02:17:31;;;;;;;8.83;7.80;;;;;;;12.34;100.00;97376.44;5110517;28;20232;-63
2023/03/11 02:20:11;;;;;;;8.90;8.13;;;;;;;12.27;100.00;97385.59;5110820;28;20662;-61
2023/03/11 02:22:40;;;;;;;9.97;7.53;;;;;;;12.26;100.00;97399.56;5109747;28;20687;-62
2023/03/11 02:25:14;;;;;;;8.97;7.93;;;;;;;12.37;100.00;97430.00;5110515;28;20194;-62
2023/03/11 02:27:46;;;;;;;11.63;7.77;;;;;;;12.23;100.00;97446.56;5110362;28;20282;-62
2023/03/11 02:30:14;;;;;;;11.33;8.00;;;;;;;12.18;100.00;97459.06;5110678;28;20289;-61
2023/03/11 02:32:43;;;;;;;12.83;9.13;;;;;;;12.16;100.00;97460.94;5110293;28;20202;-61
2023/03/11 02:35:10;;;;;;;8.80;7.93;;;;;;;12.01;100.00;97469.75;5110457;28;20583;-62
2023/03/11 02:37:37;;;;;;;9.70;8.33;;;;;;;11.95;100.00;97468.41;5110300;28;20199;-61
2023/03/11 02:40:38;;;;;;;8.27;7.43;;;;;;;11.87;100.00;97469.84;5110207;28;20577;-64
2023/03/11 02:43:09;;;;;;;8.30;7.50;;;;;;;11.64;100.00;97443.56;5110233;28;20225;-65
2023/03/11 02:45:38;;;;;;;8.60;7.80;;;;;;;11.72;100.00;97470.84;5110160;28;20561;-65
2023/03/11 02:48:08;;;;;;;8.27;7.43;;;;;;;11.69;100.00;97460.63;5110083;28;20758;-61
2023/03/11 02:50:36;;;;;;;8.50;7.23;;;;;;;11.70;100.00;97467.50;5109824;28;20594;-62
2023/03/11 02:53:03;;;;;;;13.00;7.60;;;;;;;11.75;100.00;97455.03;5110362;28;20191;-64
2023/03/11 02:55:30;;;;;;;8.97;7.00;;;;;;;11.82;100.00;97448.53;5109848;28;20190;-64
2023/03/11 02:57:57;;;;;;;8.83;7.50;;;;;;;11.81;100.00;97439.06;5110253;28;20530;-65
2023/03/11 03:00:26;;;;;;;10.80;8.47;;;;;;;11.76;100.00;97430.75;5110173;28;20298;-65
2023/03/11 03:02:52;;;;;;;11.53;8.13;;;;;;;11.79;100.00;97417.53;5109960;28;20222;-65
2023/03/11 03:05:21;;;;;;;8.87;8.00;;;;;;;11.82;100.00;97404.34;5109985;28;20242;-65
2023/03/11 03:07:48;;;;;;;9.73;8.37;;;;;;;11.89;100.00;97395.19;5109981;28;20194;-65
2023/03/11 03:10:16;;;;;;;9.83;8.20;;;;;;;12.00;100.00;97385.72;5110290;28;20206;-65
2023/03/11 03:12:43;;;;;;;12.27;8.47;;;;;;;11.89;100.00;97370.03;5109969;28;20201;-65
2023/03/11 03:15:12;;;;;;;10.30;9.07;;;;;;;11.76;100.00;97364.00;5109988;28;20198;-65
2023/03/11 03:17:40;;;;;;;9.83;8.60;;;;;;;11.71;100.00;97360.88;5109706;28;20662;-65
2023/03/11 03:20:10;;;;;;;8.93;8.13;;;;;;;11.68;100.00;97355.88;5109994;28;20201;-64
2023/03/11 03:22:38;;;;;;;10.33;9.23;;;;;;;11.64;100.00;97347.44;5109812;28;20696;-63
2023/03/11 03:25:06;;;;;;;10.37;8.87;;;;;;;11.56;100.00;97344.53;5109887;28;20194;-63
2023/03/11 03:27:34;;;;;;;13.93;9.00;;;;;;;11.65;100.00;97356.06;5109630;28;20191;-63
2023/03/11 03:30:01;;;;;;;11.80;9.73;;;;;;;11.69;100.00;97361.91;5109723;28;20595;-65
2023/03/11 03:32:28;;;;;;;8.83;8.07;;;;;;;11.65;100.00;97356.06;5109896;28;20422;-64
2023/03/11 03:34:57;;;;;;;10.47;9.27;;;;;;;11.61;100.00;97355.47;5114097;28;20194;-65
2023/03/11 03:37:26;;;;;;;9.20;8.40;;;;;;;11.53;100.00;97336.09;5113961;28;20232;-64
2023/03/11 03:39:53;;;;;;;10.80;8.43;;;;;;;11.64;100.00;97352.63;5113729;28;20194;-65
2023/03/11 03:42:21;;;;;;;10.43;7.77;;;;;;;11.70;100.00;97355.78;5113896;28;20583;-63
2023/03/11 03:44:48;;;;;;;10.23;7.87;;;;;;;11.75;100.00;97348.47;5113579;28;20580;-65
2023/03/11 03:47:15;;;;;;;7.43;6.73;;;;;;;11.83;100.00;97357.47;5113434;28;20240;-65
2023/03/11 03:49:41;;;;;;;6.93;6.17;;;;;;;11.89;100.00;97358.81;5113420;28;20281;-66
2023/03/11 03:52:10;;;;;;;9.93;6.80;;;;;;;11.93;100.00;97370.66;5113634;28;20591;-64
2023/03/11 03:54:37;;;;;;;6.70;6.20;;;;;;;11.92;100.00;97348.22;5113454;28;20194;-64
2023/03/11 03:57:05;;;;;;;8.63;7.63;;;;;;;12.10;100.00;97366.91;5113571;28;20190;-65
2023/03/11 03:59:31;;;;;;;7.50;6.73;;;;;;;12.15;100.00;97373.44;5113351;28;20209;-64
2023/03/11 04:01:58;;;;;;;6.87;6.20;;;;;;;12.15;100.00;97389.06;5113701;28;20696;-65
2023/03/11 04:04:25;;;;;;;8.50;6.87;;;;;;;12.16;100.00;97395.94;5113508;28;20608;-64
2023/03/11 04:06:52;;;;;;;8.47;7.27;;;;;;;12.17;100.00;97426.19;5113721;28;20205;-63
2023/03/11 04:09:21;;;;;;;10.23;7.43;;;;;;;12.14;100.00;97431.59;5113539;28;20285;-65
2023/03/11 04:11:48;;;;;;;9.43;7.90;;;;;;;12.11;100.00;97446.56;5113009;28;20203;-62
2023/03/11 04:14:14;;;;;;;9.17;7.47;;;;;;;12.04;100.00;97440.97;5113453;28;20791;-62
2023/03/11 04:16:42;;;;;;;10.20;7.90;;;;;;;11.97;100.00;97442.28;5113088;28;20209;-61
2023/03/11 04:19:09;;;;;;;11.27;8.30;;;;;;;12.10;100.00;97456.13;5113219;28;20281;-66
2023/03/11 04:21:36;;;;;;;13.53;8.10;;;;;;;11.99;100.00;97454.25;5112973;28;20653;-65
2023/03/11 04:24:03;;;;;;;9.33;8.03;;;;;;;12.00;100.00;97457.69;5113712;28;20244;-65
2023/03/11 04:26:31;;;;;;;8.77;7.97;;;;;;;11.94;100.00;97460.72;5112615;28;20575;-65
2023/03/11 04:28:58;;;;;;;10.83;8.13;;;;;;;11.63;100.00;97431.50;5113224;28;20568;-64
2023/03/11 04:31:25;;;;;;;7.87;7.07;;;;;;;11.79;100.00;97477.31;5113019;28;20202;-64
2023/03/11 04:33:53;;;;;;;8.43;6.97;;;;;;;11.89;100.00;97479.22;5112944;28;20186;-64
2023/03/11 04:36:20;;;;;;;8.60;7.20;;;;;;;11.85;100.00;97497.72;5112786;28;20230;-65
2023/03/11 04:38:47;;;;;;;11.80;6.87;;;;;;;11.84;100.00;97488.25;5112415;28;20197;-61
2023/03/11 04:41:14;;;;;;;8.70;7.30;;;;;;;11.81;100.00;97491.88;5112794;28;20199;-64
2023/03/11 04:43:42;;;;;;;7.70;6.50;;;;;;;11.77;100.00;97490.41;5112531;28;20222;-64
2023/03/11 04:46:09;;;;;;;6.97;6.37;;;;;;;11.75;100.00;97481.88;5111992;28;20610;-64
2023/03/11 04:48:36;;;;;;;6.73;6.30;;;;;;;11.77;100.00;97485.22;5112478;28;20599;-62
2023/03/11 04:51:03;;;;;;;11.10;7.43;;;;;;;11.79;100.00;97490.31;5112448;28;20197;-61
2023/03/11 04:53:30;;;;;;;7.90;7.10;;;;;;;11.76;100.00;97493.09;5112093;28;20685;-62
2023/03/11 04:55:57;;;;;;;8.07;7.27;;;;;;;11.82;100.00;97493.56;5112485;28;20199;-61
2023/03/11 04:58:24;;;;;;;11.60;7.80;;;;;;;11.88;100.00;97484.50;5112560;28;20190;-61
2023/03/11 05:00:53;;;;;;;9.77;7.53;;;;;;;11.94;100.00;97484.94;5112328;28;20701;-61
2023/03/11 05:03:20;;;;;;;7.80;7.20;;;;;;;11.99;100.00;97485.44;5112482;28;20218;-62
2023/03/11 05:05:47;;;;;;;8.30;7.43;;;;;;;11.98;100.00;97485.56;5112212;28;20640;-61
2023/03/11 05:08:13;;;;;;;7.13;6.40;;;;;;;12.02;100.00;97492.22;5113100;27;20202;-64
2023/03/11 05:10:41;;;;;;;8.10;7.03;;;;;;;12.02;100.00;97488.78;5113771;27;20617;-63
2023/03/11 05:13:08;;;;;;;8.60;7.43;;;;;;;12.06;100.00;97501.50;5100918;28;20219;-63
2023/03/11 05:15:36;;;;;;;8.73;6.90;;;;;;;12.01;100.00;97511.34;5111313;28;20218;-63
2023/03/11 05:18:04;;;;;;;7.27;6.57;;;;;;;12.01;100.00;97500.97;5110498;28;20483;-63
2023/03/11 05:20:31;;;;;;;8.47;6.83;;;;;;;12.13;100.00;97501.91;5110579;28;20309;-62
2023/03/11 05:22:58;;;;;;;8.53;6.40;;;;;;;12.17;100.00;97498.19;5110985;27;20227;-63
2023/03/11 05:25:25;;;;;;;7.00;6.40;;;;;;;12.30;100.00;97488.63;5111425;28;20225;-63
2023/03/11 05:27:52;;;;;;;6.43;5.63;;;;;;;12.39;100.00;97487.97;5110589;27;20603;-63
2023/03/11 05:30:19;;;;;;;6.30;5.80;;;;;;;12.48;100.00;97502.97;5111320;28;20234;-63
2023/03/11 05:32:46;;;;;;;6.63;5.63;;;;;;;12.53;100.00;97489.63;5110722;27;20222;-62
2023/03/11 05:35:14;;;;;;;6.70;6.00;;;;;;;12.47;100.00;97479.63;5111041;28;20214;-63
2023/03/11 05:37:41;;;;;;;9.37;5.60;;;;;;;12.63;100.00;97495.88;5110503;27;20216;-62
2023/03/11 05:40:12;;;;;;;6.83;5.37;;;;;;;12.54;100.00;97493.88;5111210;28;20260;-64
2023/03/11 05:42:40;;;;;;;7.50;5.97;;;;;;;12.61;100.00;97501.19;5110313;27;20229;-62
2023/03/11 05:45:08;;;;;;;8.70;6.07;;;;;;;12.66;100.00;97495.63;5110782;28;20221;-63
2023/03/11 05:47:35;;;;;;;6.07;5.53;;;;;;;12.63;100.00;97498.47;5110451;27;20737;-61
2023/03/11 05:50:02;;;;;;;7.17;5.10;;;;;;;12.78;100.00;97493.94;5124105;27;20249;-64
2023/03/11 05:52:32;;;;;;;5.77;5.27;;;;;;;12.89;100.00;97494.03;5131218;27;20232;-64
2023/03/11 05:54:59;;;;;;;7.27;5.87;;;;;;;13.05;100.00;97487.66;5131515;27;20214;-64
2023/03/11 05:57:27;;;;;;;6.67;6.07;;;;;;;13.12;100.00;97480.22;5130943;27;20697;-64
2023/03/11 05:59:53;;;;;;;7.30;6.27;;;;;;;13.22;100.00;97477.81;5131294;27;20228;-62
2023/03/11 06:02:22;;;;;;;6.43;5.73;;;;;;;13.44;100.00;97485.75;5130910;27;20218;-61
2023/03/11 06:04:49;;;;;;;9.00;5.90;;;;;;;13.59;100.00;97476.81;5130742;27;20217;-61
2023/03/11 06:07:16;;;;;;;7.90;5.77;;;;;;;13.80;100.00;97477.84;5131455;27;20717;-64
2023/03/11 06:09:44;;;;;;;5.90;5.37;;;;;;;13.99;100.00;97484.31;5131055;27;20224;-62
2023/03/11 06:12:11;;;;;;;6.50;5.10;;;;;;;14.28;100.00;97480.31;5130114;27;20228;-63
2023/03/11 06:14:38;;;;;;;6.07;4.83;;;;;;;14.61;100.00;97476.94;5130619;27;20765;-65
2023/03/11 06:17:05;;;;;;;5.70;5.20;;;;;;;15.14;100.00;97475.31;5130579;27;20251;-64
2023/03/11 06:19:32;;;;;;;4.90;4.50;;;;;;;15.73;100.00;97471.47;5121682;27;20224;-62
2023/03/11 06:21:59;;;;;;;5.17;4.67;;;;;;;16.24;98.12;97461.94;5110282;28;20225;-61
2023/03/11 06:24:26;;;;;;;5.43;4.93;;;;;;;16.93;94.61;97451.59;5109899;28;20583;-62
2023/03/11 06:26:54;;;;;;;6.27;4.83;;;;;;;17.66;89.89;97462.63;5109133;28;20583;-62
2023/03/11 06:29:23;;;;;;;6.63;4.90;;;;;;;18.00;86.01;97465.66;5109819;28;20228;-63
2023/03/11 06:31:50;;;;;;;6.88;4.95;;;;;;;18.14;84.23;97462.59;5109526;28;20230;-63
2023/03/11 06:34:17;;;;;;;6.07;5.13;;;;;;;17.99;84.29;97464.81;5109570;28;20632;-63
2023/03/11 06:36:45;;;;;;;6.90;5.85;;;;;;;17.81;85.17;97461.25;5109782;28;20218;-63
2023/03/11 06:39:14;;;;;;;5.68;5.18;;;;;;;17.78;85.22;97464.16;5110296;28;20226;-63
2023/03/11 06:41:42;;;;;;;5.80;5.30;;;;;;;17.70;85.27;97459.63;5109735;28;20210;-63
2023/03/11 06:44:12;;;;;;;5.50;5.00;;;;;;;17.50;86.18;97462.31;5109586;28;20222;-65
2023/03/11 06:46:39;;;;;;;5.68;4.90;;;;;;;17.12;87.69;97469.19;5111480;28;20225;-64
2023/03/11 06:49:06;;;;;;;5.30;4.90;;;;;;;16.90;89.04;97469.41;5114438;27;20227;-64
2023/03/11 06:51:34;;;;;;;5.70;4.10;;;;;;;16.69;90.29;97470.31;5130255;27;20226;-63
2023/03/11 06:54:01;;;;;;;5.30;4.47;;;;;;;16.43;91.71;97453.34;5130020;27;20296;-64
2023/03/11 06:56:27;;;;;;;7.47;3.67;;;;;;;16.30;91.96;97453.53;5130085;27;20218;-60
2023/03/11 06:58:54;;;;;;;4.37;3.67;;;;;;;16.31;91.44;97459.59;5129737;27;20210;-64
2023/03/11 07:01:24;;;;;;;6.33;3.07;;;;;;;16.32;90.99;97454.25;5130037;27;20221;-65
2023/03/11 07:03:52;;;;;;;3.33;3.03;;;;;;;16.35;90.28;97455.78;5129906;27;20542;-62
2023/03/11 07:06:21;;;;;;;2.53;2.33;;;;;;;16.28;88.92;97457.25;5130341;27;20228;-63
2023/03/11 07:08:49;;;;;;;4.83;3.70;;;;;;;16.10;88.27;97461.41;5129145;27;20218;-63
2023/03/11 07:11:18;;;;;;;3.00;2.37;;;;;;;16.02;87.65;97461.25;5115272;28;20244;-67
2023/03/11 07:13:45;;;;;;;5.60;2.30;;;;;;;16.07;88.01;97462.50;5099130;28;20227;-63
2023/03/11 07:16:15;;;;;;;3.50;2.33;;;;;;;16.23;88.03;97455.03;5089098;28;20223;-62
2023/03/11 07:18:45;;;;;;;2.70;2.43;;;;;;;16.44;87.68;97444.53;5090715;28;20306;-64
2023/03/11 07:21:14;;;;;;;5.47;2.33;;;;;;;17.68;86.22;97451.06;5109363;28;20309;-65
2023/03/11 07:23:42;;;;;;;4.32;2.50;;;;;;;20.20;74.04;97459.34;5108889;28;20658;-64
2023/03/11 07:26:10;;;;;;;3.33;3.03;;;;;;;22.71;63.16;97453.75;5109122;28;20225;-63
2023/03/11 07:28:37;;;;;;;5.47;5.00;;;;;;;24.68;57.04;97474.31;5109223;28;20266;-64
2023/03/11 07:31:08;;;;;;;7.85;4.22;;;;;;;25.87;52.98;97464.13;5109521;28;20225;-63
2023/03/11 07:33:37;;;;;;;2.60;2.40;;;;;;;25.42;51.34;97451.16;5109308;28;20222;-64
2023/03/11 07:36:09;;;;;;;3.85;2.72;;;;;;;24.99;52.15;97452.91;5108801;28;20221;-65
2023/03/11 07:38:37;;;;;;;3.58;2.70;;;;;;;24.26;53.65;97456.34;5109511;28;20585;-65
2023/03/11 07:41:04;;;;;;;6.43;5.90;;;;;;;23.40;56.30;97458.25;5108567;28;20721;-64
2023/03/11 07:43:31;;;;;;;3.15;2.85;;;;;;;22.41;58.42;97440.28;5109073;28;20218;-64
2023/03/11 07:46:06;;;;;;;5.82;3.63;;;;;;;21.63;61.04;97457.66;5108694;28;20705;-64
2023/03/11 07:48:33;;;;;;;3.80;3.00;;;;;;;21.07;63.48;97455.69;5108662;28;20648;-62
2023/03/11 07:51:02;;;;;;;5.72;3.25;;;;;;;20.64;64.91;97460.13;5108632;28;20770;-62
2023/03/11 07:53:30;;;;;;;3.97;3.65;;;;;;;20.35;66.13;97468.34;5108759;28;20232;-63
2023/03/11 07:55:58;;;;;;;7.38;6.65;;;;;;;20.43;65.94;97457.84;5108138;28;20215;-64
2023/03/11 07:58:26;;;;;;;3.67;3.15;;;;;;;20.46;66.44;97461.97;5109014;28;20229;-63
2023/03/11 08:00:55;;;;;;;7.55;3.72;;;;;;;20.05;67.23;97440.63;5107906;28;20244;-63
2023/03/11 08:03:23;;;;;;;3.97;3.65;;;;;;;20.05;66.99;97448.53;5107714;28;20226;-62
2023/03/11 08:05:50;;;;;;;4.72;4.32;;;;;;;20.28;65.73;97440.94;5108582;28;20215;-63
2023/03/11 08:08:17;;;;;;;3.75;3.45;;;;;;;20.27;66.23;97441.91;5108534;28;20223;-62
2023/03/11 08:10:45;;;;;;;8.02;6.88;;;;;;;20.26;65.90;97438.47;5106225;28;20233;-62
2023/03/11 08:13:12;;;;;;;4.70;3.15;;;;;;;20.31;64.34;97441.44;5108304;28;20229;-62
2023/03/11 08:15:39;;;;;;;4.30;3.90;;;;;;;20.19;64.35;97439.25;5108618;28;20627;-62
2023/03/11 08:18:06;;;;;;;3.13;2.83;;;;;;;20.24;63.99;97429.88;5108689;28;20309;-62
2023/03/11 08:20:33;;;;;;;2.88;2.28;;;;;;;20.20;61.63;97438.25;5127952;27;20301;-62
2023/03/11 08:23:00;;;;;;;8.25;4.80;;;;;;;20.20;61.68;97439.06;5132692;27;20228;-62
2023/03/11 08:25:27;;;;;;;15.25;11.52;;;;;;;20.39;61.94;97430.16;5132478;27;20233;-62
2023/03/11 08:27:55;;;;;;;3.70;3.33;;;;;;;20.33;61.54;97437.81;5132406;27;20213;-62
2023/03/11 08:30:22;;;;;;;4.07;3.78;;;;;;;20.54;60.88;97435.69;5132530;27;20217;-64
2023/03/11 08:32:50;;;;;;;2.00;1.90;;;;;;;20.43;60.95;97442.03;5132223;27;20278;-64
2023/03/11 08:35:18;;;;;;;11.07;10.02;;;;;;;20.51;61.28;97444.72;5132774;27;20612;-64
2023/03/11 08:37:44;;;;;;;3.40;3.20;;;;;;;20.65;61.39;97445.97;5132432;27;20660;-64
2023/03/11 08:40:13;;;;;;;3.83;2.80;;;;;;;20.73;60.71;97447.81;5131954;27;20218;-64
2023/03/11 08:42:40;;;;;;;2.53;2.33;;;;;;;20.56;60.69;97409.97;5132442;27;20221;-64
2023/03/11 08:45:10;;;;;;;8.65;3.63;;;;;;;20.41;61.40;97437.91;5132048;27;20230;-63
2023/03/11 08:47:38;;;;;;;6.50;4.22;;;;;;;20.30;61.51;97425.81;5132354;27;20233;-63
2023/03/11 08:50:08;;;;;;;7.95;2.05;;;;;;;20.10;61.20;97438.34;5118079;27;20237;-63
2023/03/11 08:52:35;;;;;;;5.80;4.75;;;;;;;20.06;60.86;97423.84;5111572;28;20224;-64
2023/03/11 08:55:03;;;;;;;3.25;2.40;;;;;;;20.00;60.74;97408.66;5109787;28;20791;-64
2023/03/11 08:57:30;;;;;;;3.08;1.60;;;;;;;20.21;61.05;97440.72;5111768;28;20691;-63
2023/03/11 08:59:58;;;;;;;1.55;1.45;;;;;;;20.21;59.92;97432.00;5100716;28;20232;-64
2023/03/11 09:02:27;;;;;;;1.52;1.15;;;;;;;20.17;59.68;97442.03;5091385;28;20219;-64
2023/03/11 09:04:54;;;;;;;2.70;1.67;;;;;;;20.17;59.76;97420.13;5090607;28;20227;-63
2023/03/11 09:07:21;;;;;;;5.45;4.75;;;;;;;20.20;59.99;97417.19;5091273;28;20234;-64
2023/03/11 09:09:48;;;;;;;4.68;1.90;;;;;;;20.02;60.64;97417.22;5090116;28;20424;-63
2023/03/11 09:12:15;;;;;;;3.38;1.90;;;;;;;19.70;60.93;97414.34;5091062;28;20221;-65
2023/03/11 09:14:42;;;;;;;2.05;1.30;;;;;;;19.77;61.02;97405.69;5091124;28;20226;-64
2023/03/11 09:17:09;;;;;;;4.32;2.72;;;;;;;19.60;61.72;97405.72;5090957;28;20219;-64
2023/03/11 09:19:37;;;;;;;1.58;1.20;;;;;;;19.47;61.81;97401.63;5100405;28;20222;-64
2023/03/11 09:22:05;;;;;;;1.02;1.02;;;;;;;19.43;62.10;97395.00;5110917;28;20222;-64
2023/03/11 09:24:33;;;;;;;3.03;1.70;;;;;;;19.41;62.26;97390.91;5110502;28;20223;-64
2023/03/11 09:27:00;;;;;;;1.27;1.23;;;;;;;19.45;61.98;97387.78;5110793;28;20737;-64
2023/03/11 09:29:28;;;;;;;8.55;1.75;;;;;;;19.33;61.99;97378.47;5111285;28;20220;-65
2023/03/11 09:31:55;;;;;;;6.65;1.35;;;;;;;19.27;62.41;97376.47;5110343;28;20234;-64
2023/03/11 09:34:22;;;;;;;1.35;1.25;;;;;;;19.49;61.15;97383.09;5111033;28;20226;-61
2023/03/11 09:36:50;;;;;;;4.55;1.10;;;;;;;19.47;60.33;97377.13;5110567;28;20260;-62
2023/03/11 09:39:17;;;;;;;8.10;1.67;;;;;;;19.43;60.54;97376.59;5109875;28;20245;-61
2023/03/11 09:41:52;;;;;;;2.13;1.30;;;;;;;19.43;60.54;97365.25;5110069;28;20218;-61
2023/03/11 09:44:24;;;;;;;16.65;2.63;;;;;;;19.25;61.46;97370.53;5111001;28;20236;-62
2023/03/11 09:47:23;;;;;;;11.02;3.75;;;;;;;19.34;61.73;97372.25;5110354;28;20225;-62
2023/03/11 09:50:04;;;;;;;2.67;1.80;;;;;;;19.32;61.37;97366.31;5094600;28;20230;-63
2023/03/11 09:52:40;;;;;;;5.07;2.22;;;;;;;19.42;61.25;97372.31;5110327;28;20642;-63
2023/03/11 09:55:33;;;;;;;6.18;2.70;;;;;;;19.64;60.61;97375.50;5106665;28;20220;-63
2023/03/11 09:58:04;;;;;;;5.85;1.67;;;;;;;19.77;59.66;97366.19;5108217;28;20716;-62
2023/03/11 10:00:32;;;;;;;2.97;1.55;;;;;;;20.06;58.89;97373.81;5107134;28;20226;-62
2023/03/11 10:03:02;;;;;;;1.70;1.27;;;;;;;20.17;57.60;97365.66;5109806;28;20279;-64
2023/03/11 10:05:30;;;;;;;3.80;1.50;;;;;;;20.16;57.03;97361.34;5110511;28;20222;-62
2023/03/11 10:08:09;;;;;;;1.85;1.17;;;;;;;20.26;56.82;97361.25;5110047;28;20657;-61
2023/03/11 10:10:44;;;;;;;1.60;1.30;;;;;;;20.26;56.01;97374.41;5109632;28;20741;-62
2023/03/11 10:13:18;;;;;;;2.80;1.23;;;;;;;20.06;55.28;97371.19;5110064;28;20220;-63
2023/03/11 10:15:52;;;;;;;2.03;0.90;;;;;;;19.85;54.83;97379.44;5110506;28;20219;-64
2023/03/11 10:18:30;;;;;;;1.45;1.10;;;;;;;19.92;55.21;97380.47;5109255;28;20234;-64
2023/03/11 10:21:04;;;;;;;1.40;1.27;;;;;;;19.51;55.66;97360.09;5104666;28;20222;-62
2023/03/11 10:23:44;;;;;;;2.60;1.83;;;;;;;19.69;55.35;97374.03;5106890;28;20210;-62
2023/03/11 10:26:15;;;;;;;11.75;2.28;;;;;;;19.76;55.61;97382.16;5109867;28;20230;-62
2023/03/11 10:28:49;;;;;;;4.45;2.20;;;;;;;19.76;55.86;97379.50;5109643;28;20229;-62
2023/03/11 10:31:22;;;;;;;6.10;2.20;;;;;;;19.82;55.72;97373.66;5106277;28;20210;-61
2023/03/11 10:33:55;;;;;;;9.02;2.30;;;;;;;19.97;55.64;97368.66;5105666;28;20739;-63
2023/03/11 10:36:26;;;;;;;3.88;2.40;;;;;;;20.23;55.05;97365.00;5108391;28;20218;-61
2023/03/11 10:38:56;;;;;;;7.15;2.20;;;;;;;20.31;54.96;97353.69;5106042;28;20254;-62
2023/03/11 10:41:28;;;;;;;3.97;2.05;;;;;;;20.40;54.06;97367.75;5109561;28;20584;-61
2023/03/11 10:44:03;;;;;;;2.08;1.83;;;;;;;20.28;54.12;97369.81;5109112;28;20218;-63
2023/03/11 10:46:30;;;;;;;7.30;2.20;;;;;;;20.18;53.41;97356.75;5109698;28;20643;-63
2023/03/11 10:48:57;;;;;;;8.98;1.92;;;;;;;20.08;52.45;97358.69;5113432;27;20225;-64
2023/03/11 10:51:26;;;;;;;5.68;2.35;;;;;;;19.99;53.13;97351.69;5130046;27;20218;-62
2023/03/11 10:53:56;;;;;;;4.47;1.92;;;;;;;19.96;53.13;97346.75;5129401;27;20222;-62
2023/03/11 10:56:31;;;;;;;6.75;2.92;;;;;;;20.01;53.32;97341.00;5129697;27;20309;-63
2023/03/11 10:59:00;;;;;;;4.00;3.03;;;;;;;20.01;53.40;97347.09;5129776;27;20213;-62
2023/03/11 11:01:28;;;;;;;2.50;2.30;;;;;;;19.96;53.59;97344.13;5129931;27;20305;-62
2023/03/11 11:03:57;;;;;;;4.25;2.30;;;;;;;19.82;53.20;97326.28;5129838;27;20221;-62
2023/03/11 11:06:28;;;;;;;6.30;2.70;;;;;;;19.93;53.61;97328.63;5130080;28;20320;-62
2023/03/11 11:09:13;;;;;;;7.18;2.72;;;;;;;20.01;53.64;97333.13;5129151;27;20221;-62
2023/03/11 11:11:40;;;;;;;3.83;3.20;;;;;;;20.00;53.20;97329.66;5129652;27;20217;-64
2023/03/11 11:14:09;;;;;;;10.90;3.95;;;;;;;20.19;52.97;97334.72;5130010;28;20217;-64
2023/03/11 11:16:36;;;;;;;4.00;2.40;;;;;;;20.32;51.74;97318.44;5130075;27;20209;-62
2023/03/11 11:19:07;;;;;;;5.65;2.85;;;;;;;20.48;51.28;97333.53;5111669;28;20226;-65
2023/03/11 11:21:38;;;;;;;3.47;2.35;;;;;;;20.49;50.82;97322.84;5108285;28;20218;-66
2023/03/11 11:24:17;;;;;;;3.40;2.97;;;;;;;20.36;51.04;97325.09;5108792;27;20228;-64
2023/03/11 11:27:04;;;;;;;3.00;2.15;;;;;;;20.31;51.05;97322.88;5109340;28;20590;-62
2023/03/11 11:29:31;;;;;;;2.67;2.20;;;;;;;20.24;51.25;97315.78;5088127;28;20237;-61
2023/03/11 11:32:17;;;;;;;5.30;2.05;;;;;;;20.10;50.54;97314.56;5096899;28;20223;-61
2023/03/11 11:34:54;;;;;;;5.13;1.98;;;;;;;20.10;50.29;97309.28;5088975;28;20289;-62